createdAt,value
2018-11-06T00:01:32.313Z,6.39
2018-11-06T00:04:03.961Z,6.37
2018-11-06T00:06:34.297Z,6.34
2018-11-06T00:09:04.824Z,6.29
2018-11-06T00:11:35.145Z,6.26
2018-11-06T00:14:05.912Z,6.27
2018-11-06T00:16:36.235Z,6.26
2018-11-06T00:19:06.737Z,6.38
2018-11-06T00:21:37.029Z,6.45
2018-11-06T00:24:07.240Z,6.47
2018-11-06T00:26:37.507Z,6.48
2018-11-06T00:29:07.756Z,6.32
2018-11-06T00:31:38.183Z,6.21
2018-11-06T00:34:08.509Z,6.17
2018-11-06T00:36:38.661Z,6.18
2018-11-06T00:39:09.445Z,6.11
2018-11-06T00:41:40.142Z,6.01
2018-11-06T00:44:10.537Z,5.91
2018-11-06T00:46:40.834Z,5.95
2018-11-06T00:49:11.098Z,6.03
2018-11-06T00:51:41.582Z,5.93
2018-11-06T00:54:11.890Z,5.85
2018-11-06T00:56:42.113Z,5.79
2018-11-06T00:59:12.714Z,5.72
2018-11-06T01:01:42.939Z,5.71
2018-11-06T01:04:14.594Z,5.70
2018-11-06T01:06:44.865Z,5.75
2018-11-06T01:09:16.707Z,5.66
2018-11-06T01:11:47.030Z,5.63
2018-11-06T01:14:17.222Z,5.56
2018-11-06T01:16:47.486Z,5.47
2018-11-06T01:19:17.957Z,5.47
2018-11-06T01:21:48.218Z,5.51
2018-11-06T01:24:18.539Z,5.66
2018-11-06T01:26:48.762Z,5.67
2018-11-06T01:29:19.125Z,5.67
2018-11-06T01:31:49.490Z,5.60
2018-11-06T01:34:19.757Z,5.62
2018-11-06T01:36:49.984Z,5.75
2018-11-06T01:39:20.428Z,5.78
2018-11-06T01:41:50.792Z,5.72
2018-11-06T01:44:21.164Z,5.68
2018-11-06T01:46:51.451Z,5.83
2018-11-06T01:49:21.854Z,5.78
2018-11-06T01:51:52.200Z,5.77
2018-11-06T01:54:22.410Z,5.83
2018-11-06T01:56:52.720Z,5.94
2018-11-06T01:59:23.058Z,6.05
2018-11-06T02:01:53.406Z,6.20
2018-11-06T02:04:23.635Z,6.35
2018-11-06T02:06:53.860Z,6.33
2018-11-06T02:09:24.146Z,6.27
2018-11-06T02:11:54.399Z,6.24
2018-11-06T02:14:24.556Z,6.16
2018-11-06T02:16:54.782Z,6.04
2018-11-06T02:19:25.151Z,5.93
2018-11-06T02:21:55.482Z,5.86
2018-11-06T02:24:25.736Z,5.79
2018-11-06T02:26:55.976Z,5.69
2018-11-06T02:29:26.217Z,5.61
2018-11-06T02:31:56.547Z,5.53
2018-11-06T02:34:26.805Z,5.49
2018-11-06T02:36:57.027Z,5.48
2018-11-06T02:39:27.320Z,5.56
2018-11-06T02:41:57.600Z,5.54
2018-11-06T02:44:27.823Z,5.50
2018-11-06T02:46:58.097Z,5.49
2018-11-06T02:49:28.324Z,5.41
2018-11-06T02:51:58.569Z,5.38
2018-11-06T02:54:28.892Z,5.38
2018-11-06T02:56:59.245Z,5.32
2018-11-06T02:59:29.518Z,5.17
2018-11-06T03:01:59.713Z,5.29
2018-11-06T03:04:29.954Z,5.59
2018-11-06T03:07:00.294Z,5.65
2018-11-06T03:09:30.808Z,5.62
2018-11-06T03:12:01.144Z,5.66
2018-11-06T03:14:31.437Z,5.64
2018-11-06T03:17:01.834Z,5.49
2018-11-06T03:19:32.073Z,5.32
2018-11-06T03:22:02.557Z,5.23
2018-11-06T03:24:33.178Z,5.25
2018-11-06T03:27:03.775Z,5.24
2018-11-06T03:29:33.967Z,5.17
2018-11-06T03:32:04.228Z,5.01
2018-11-06T03:34:34.421Z,4.92
2018-11-06T03:37:04.950Z,4.88
2018-11-06T03:39:35.205Z,4.88
2018-11-06T03:42:05.887Z,4.91
2018-11-06T03:44:36.241Z,4.91
2018-11-06T03:47:06.665Z,4.84
2018-11-06T03:49:36.925Z,4.79
2018-11-06T03:52:07.333Z,4.68
2018-11-06T03:54:37.707Z,4.62
2018-11-06T03:57:08.004Z,4.66
2018-11-06T03:59:38.221Z,4.70
2018-11-06T04:02:08.480Z,4.74
2018-11-06T04:04:38.707Z,4.75
2018-11-06T04:07:08.987Z,4.75
2018-11-06T04:09:39.383Z,4.79
2018-11-06T04:12:09.665Z,4.79
2018-11-06T04:14:39.865Z,4.65
2018-11-06T04:17:10.193Z,4.71
2018-11-06T04:19:40.481Z,4.67
2018-11-06T04:22:10.797Z,4.53
2018-11-06T04:24:41.169Z,4.37
2018-11-06T04:27:11.509Z,4.35
2018-11-06T04:29:41.733Z,4.36
2018-11-06T04:32:12.255Z,4.33
2018-11-06T04:34:42.532Z,4.23
2018-11-06T04:37:12.850Z,4.16
2018-11-06T04:39:43.107Z,4.08
2018-11-06T04:42:13.475Z,4.05
2018-11-06T04:44:43.758Z,4.01
2018-11-06T04:47:14.004Z,4.02
2018-11-06T04:49:44.260Z,4.03
2018-11-06T04:52:15.348Z,4.05
2018-11-06T04:54:45.502Z,4.10
2018-11-06T04:57:15.717Z,4.10
2018-11-06T04:59:45.964Z,4.11
2018-11-06T05:02:16.296Z,4.05
2018-11-06T05:04:46.545Z,3.98
2018-11-06T05:07:16.873Z,3.98
2018-11-06T05:09:47.095Z,4.06
2018-11-06T05:12:17.345Z,4.18
2018-11-06T05:14:47.599Z,4.23
2018-11-06T05:17:17.863Z,4.34
2018-11-06T05:19:48.244Z,4.35
2018-11-06T05:22:18.609Z,4.32
2018-11-06T05:24:48.810Z,4.30
2018-11-06T05:27:19.112Z,4.23
2018-11-06T05:29:49.337Z,4.13
2018-11-06T05:32:19.727Z,4.06
2018-11-06T05:34:50.714Z,4.09
2018-11-06T05:37:24.375Z,3.95
2018-11-06T05:40:06.505Z,3.90
2018-11-06T05:42:36.908Z,3.95
2018-11-06T05:45:07.232Z,3.88
2018-11-06T05:47:37.742Z,3.90
2018-11-06T05:50:08.014Z,3.84
2018-11-06T05:52:41.396Z,3.72
2018-11-06T05:55:11.657Z,3.68
2018-11-06T05:57:41.932Z,3.69
2018-11-06T06:00:12.412Z,3.69
2018-11-06T06:02:42.674Z,3.67
2018-11-06T06:05:13.125Z,3.70
2018-11-06T06:07:43.420Z,3.74
2018-11-06T06:10:13.748Z,3.77
2018-11-06T06:12:44.878Z,3.75
2018-11-06T06:15:15.181Z,3.78
2018-11-06T06:17:45.460Z,3.80
2018-11-06T06:20:15.690Z,3.76
2018-11-06T06:22:45.924Z,3.76
2018-11-06T06:25:16.200Z,3.77
2018-11-06T06:27:46.547Z,3.82
2018-11-06T06:30:17.388Z,3.96
2018-11-06T06:32:47.620Z,4.13
2018-11-06T06:35:18.083Z,4.36
2018-11-06T06:37:48.254Z,4.59
2018-11-06T06:40:19.167Z,4.69
2018-11-06T06:42:49.378Z,4.86
2018-11-06T06:45:20.206Z,5.31
2018-11-06T06:47:50.443Z,5.37
2018-11-06T06:50:20.881Z,5.45
2018-11-06T06:52:51.128Z,5.55
2018-11-06T06:55:21.382Z,5.73
2018-11-06T06:57:51.636Z,6.11
2018-11-06T07:00:22.831Z,6.44
2018-11-06T07:02:53.339Z,6.77
2018-11-06T07:05:24.319Z,7.10
2018-11-06T07:07:54.592Z,7.35
2018-11-06T07:10:24.874Z,7.41
2018-11-06T07:12:55.308Z,7.50
2018-11-06T07:15:25.630Z,7.61
2018-11-06T07:17:55.925Z,7.73
2018-11-06T07:20:26.705Z,7.92
2018-11-06T07:22:57.012Z,8.24
2018-11-06T07:25:27.427Z,8.43
2018-11-06T07:27:57.777Z,8.58
2018-11-06T07:30:27.999Z,8.62
2018-11-06T07:32:58.241Z,8.76
2018-11-06T07:35:28.630Z,8.97
2018-11-06T07:37:58.941Z,9.23
2018-11-06T07:40:29.181Z,9.38
2018-11-06T07:42:59.570Z,9.68
2018-11-06T07:45:29.795Z,9.81
2018-11-06T07:48:00.036Z,9.93
2018-11-06T07:50:30.361Z,10.01
2018-11-06T07:53:00.451Z,10.02
2018-11-06T07:55:30.893Z,10.32
2018-11-06T07:58:01.170Z,10.77
2018-11-06T08:00:31.470Z,11.30
2018-11-06T08:03:01.724Z,11.79
2018-11-06T08:05:31.995Z,12.15
2018-11-06T08:08:02.289Z,12.54
2018-11-06T08:10:32.537Z,13.11
2018-11-06T08:13:02.871Z,13.64
2018-11-06T08:15:33.172Z,14.13
2018-11-06T08:18:03.524Z,14.72
2018-11-06T08:20:33.803Z,15.26
2018-11-06T08:23:04.045Z,15.46
2018-11-06T08:25:34.395Z,15.59
2018-11-06T08:28:04.684Z,15.56
2018-11-06T08:30:35.010Z,15.79
2018-11-06T08:33:05.357Z,15.96
2018-11-06T08:35:35.555Z,16.41
2018-11-06T08:38:05.959Z,16.97
2018-11-06T08:40:36.243Z,17.37
2018-11-06T08:43:06.503Z,17.55
2018-11-06T08:45:36.765Z,18.04
2018-11-06T08:48:07.146Z,18.51
2018-11-06T08:50:37.363Z,18.84
2018-11-06T08:53:07.595Z,19.36
2018-11-06T08:55:37.948Z,19.56
2018-11-06T08:58:08.250Z,19.55
2018-11-06T09:00:38.521Z,19.39
2018-11-06T09:03:09.014Z,18.81
2018-11-06T09:05:39.268Z,18.41
2018-11-06T09:08:09.559Z,18.41
2018-11-06T09:10:39.787Z,18.67
2018-11-06T09:13:10.005Z,19.06
2018-11-06T09:15:40.250Z,19.49
2018-11-06T09:18:10.456Z,19.96
2018-11-06T09:20:40.684Z,20.56
2018-11-06T09:23:11.036Z,20.78
2018-11-06T09:25:41.231Z,21.16
2018-11-06T09:28:11.648Z,21.26
2018-11-06T09:30:41.939Z,20.62
2018-11-06T09:33:12.103Z,20.71
2018-11-06T09:35:42.435Z,20.88
2018-11-06T09:38:12.887Z,21.40
2018-11-06T09:40:43.151Z,21.98
2018-11-06T09:43:13.578Z,22.79
2018-11-06T09:45:43.812Z,23.27
2018-11-06T09:48:14.078Z,23.64
2018-11-06T09:50:44.302Z,23.60
2018-11-06T09:53:14.604Z,23.85
2018-11-06T09:55:44.948Z,23.36
2018-11-06T09:58:15.250Z,22.77
2018-11-06T10:00:45.474Z,22.85
2018-11-06T10:03:15.840Z,22.81
2018-11-06T10:05:46.172Z,23.67
2018-11-06T10:08:16.388Z,24.56
2018-11-06T10:10:46.656Z,24.36
2018-11-06T10:13:16.944Z,23.99
2018-11-06T10:15:47.308Z,24.23
2018-11-06T10:18:17.626Z,24.24
2018-11-06T10:20:47.837Z,22.26
2018-11-06T10:23:18.128Z,22.17
2018-11-06T10:25:48.393Z,22.41
2018-11-06T10:28:18.635Z,23.27
2018-11-06T10:30:48.881Z,24.15
2018-11-06T10:33:19.261Z,24.42
2018-11-06T10:35:49.524Z,23.34
2018-11-06T10:38:19.944Z,22.14
2018-11-06T10:40:50.156Z,22.15
2018-11-06T10:43:20.562Z,21.93
2018-11-06T10:45:50.872Z,23.50
2018-11-06T10:48:21.375Z,23.61
2018-11-06T10:50:51.639Z,24.09
2018-11-06T10:53:22.058Z,23.41
2018-11-06T10:55:52.327Z,24.85
2018-11-06T10:58:22.569Z,25.12
2018-11-06T11:00:57.900Z,25.91
2018-11-06T11:03:33.050Z,26.38
2018-11-06T11:06:03.436Z,24.78
2018-11-06T11:08:33.741Z,24.26
2018-11-06T11:11:04.049Z,23.88
2018-11-06T11:13:34.371Z,23.01
2018-11-06T11:16:04.703Z,22.55
2018-11-06T11:18:34.966Z,21.70
2018-11-06T11:21:05.568Z,21.05
2018-11-06T11:23:35.853Z,21.25
2018-11-06T11:26:06.075Z,21.93
2018-11-06T11:28:36.424Z,22.40
2018-11-06T11:31:11.771Z,22.86
2018-11-06T11:33:42.756Z,23.40
2018-11-06T11:36:13.251Z,24.02
2018-11-06T11:38:43.883Z,23.57
2018-11-06T11:41:14.094Z,22.94
2018-11-06T11:43:44.445Z,22.13
2018-11-06T11:46:14.658Z,21.70
2018-11-06T11:48:44.839Z,21.54
2018-11-06T11:51:15.167Z,21.04
2018-11-06T11:53:45.423Z,20.62
2018-11-06T11:56:15.743Z,20.33
2018-11-06T11:58:46.087Z,19.97
2018-11-06T12:01:16.420Z,19.87
2018-11-06T12:03:46.701Z,19.68
2018-11-06T12:06:16.959Z,19.83
2018-11-06T12:08:47.459Z,20.19
2018-11-06T12:11:17.615Z,20.18
2018-11-06T12:13:47.882Z,20.51
2018-11-06T12:16:18.133Z,20.42
2018-11-06T12:18:48.560Z,20.95
2018-11-06T12:21:18.847Z,21.27
2018-11-06T12:23:49.191Z,21.26
2018-11-06T12:26:20.339Z,21.51
2018-11-06T12:28:50.594Z,22.37
2018-11-06T12:31:21.611Z,23.56
2018-11-06T12:33:51.913Z,23.58
2018-11-06T12:36:22.288Z,23.27
2018-11-06T12:38:52.502Z,23.06
2018-11-06T12:41:22.813Z,22.61
2018-11-06T12:43:53.107Z,22.76
2018-11-06T12:46:29.165Z,23.03
2018-11-06T12:48:59.336Z,22.51
2018-11-06T12:51:29.573Z,22.66
2018-11-06T12:53:59.848Z,24.19
2018-11-06T12:56:30.285Z,25.53
2018-11-06T12:59:00.771Z,26.44
2018-11-06T13:01:31.156Z,27.54
2018-11-06T13:04:01.417Z,27.91
2018-11-06T13:06:31.852Z,26.77
2018-11-06T13:09:02.409Z,27.20
2018-11-06T13:11:32.745Z,26.47
2018-11-06T13:14:03.149Z,25.46
2018-11-06T13:16:33.513Z,25.53
2018-11-06T13:19:03.851Z,25.20
2018-11-06T13:21:34.176Z,24.85
2018-11-06T13:24:04.476Z,24.51
2018-11-06T13:26:34.955Z,23.75
2018-11-06T13:29:05.589Z,23.07
2018-11-06T13:31:35.782Z,22.30
2018-11-06T13:34:06.092Z,21.69
2018-11-06T13:36:36.351Z,20.83
2018-11-06T13:39:09.265Z,20.43
2018-11-06T13:41:39.550Z,20.07
2018-11-06T13:44:10.032Z,19.89
2018-11-06T13:46:40.147Z,19.54
2018-11-06T13:49:10.357Z,19.13
2018-11-06T13:51:40.630Z,18.93
2018-11-06T13:54:11.243Z,18.81
2018-11-06T13:56:41.744Z,18.70
2018-11-06T13:59:11.956Z,18.64
2018-11-06T14:01:42.106Z,18.56
2018-11-06T14:04:12.358Z,18.41
2018-11-06T14:06:42.590Z,18.26
2018-11-06T14:09:12.890Z,18.24
2018-11-06T14:11:43.114Z,18.21
2018-11-06T14:14:13.434Z,18.18
2018-11-06T14:16:43.841Z,18.10
2018-11-06T14:19:14.196Z,18.05
2018-11-06T14:21:44.460Z,17.97
2018-11-06T14:24:14.750Z,17.92
2018-11-06T14:26:45.017Z,17.91
2018-11-06T14:29:15.438Z,17.84
2018-11-06T14:31:45.617Z,17.79
2018-11-06T14:34:15.874Z,17.71
2018-11-06T14:36:46.068Z,17.66
2018-11-06T14:39:16.828Z,17.61
2018-11-06T14:41:47.162Z,17.54
2018-11-06T14:44:17.720Z,17.46
2018-11-06T14:46:48.304Z,17.39
2018-11-06T14:49:19.032Z,17.33
2018-11-06T14:51:49.428Z,17.22
2018-11-06T14:54:19.970Z,17.11
2018-11-06T14:56:50.358Z,17.03
2018-11-06T14:59:23.937Z,16.90
2018-11-06T15:01:54.234Z,16.77
2018-11-06T15:04:24.597Z,16.70
2018-11-06T15:06:55.130Z,16.60
2018-11-06T15:09:25.569Z,16.46
2018-11-06T15:11:56.320Z,16.35
2018-11-06T15:14:27.127Z,16.25
2018-11-06T15:16:57.677Z,16.13
2018-11-06T15:19:28.143Z,16.04
2018-11-06T15:21:59.271Z,15.92
2018-11-06T15:24:29.647Z,15.78
2018-11-06T15:27:00.165Z,15.64
2018-11-06T15:29:30.715Z,15.53
2018-11-06T15:32:01.359Z,15.42
2018-11-06T15:34:31.897Z,15.27
2018-11-06T15:37:02.881Z,15.19
2018-11-06T15:39:33.273Z,15.13
2018-11-06T15:42:03.810Z,14.96
2018-11-06T15:44:34.492Z,14.82
2018-11-06T15:47:05.249Z,14.67
2018-11-06T15:49:35.970Z,14.58
2018-11-06T15:52:06.542Z,14.50
2018-11-06T15:54:37.377Z,14.47
2018-11-06T15:57:07.975Z,14.37
2018-11-06T15:59:38.420Z,14.22
2018-11-06T16:02:09.205Z,14.14
2018-11-06T16:04:39.721Z,14.08
2018-11-06T16:07:11.258Z,14.06
2018-11-06T16:09:41.620Z,13.96
2018-11-06T16:12:12.017Z,13.87
2018-11-06T16:14:42.638Z,13.81
2018-11-06T16:17:13.343Z,13.66
2018-11-06T16:19:44.331Z,13.57
2018-11-06T16:22:14.902Z,13.43
2018-11-06T16:24:45.513Z,13.26
2018-11-06T16:27:16.471Z,13.15
2018-11-06T16:29:47.092Z,13.09
2018-11-06T16:32:17.705Z,13.10
2018-11-06T16:34:48.164Z,13.12
2018-11-06T16:37:18.710Z,13.10
2018-11-06T16:39:49.237Z,13.05
2018-11-06T16:42:20.247Z,12.94
2018-11-06T16:44:52.385Z,12.86
2018-11-06T16:47:22.911Z,12.79
2018-11-06T16:49:53.400Z,12.75
2018-11-06T16:52:23.841Z,12.61
2018-11-06T16:54:54.319Z,12.57
2018-11-06T16:57:24.863Z,12.53
2018-11-06T16:59:55.689Z,12.56
2018-11-06T17:02:26.680Z,12.51
2018-11-06T17:05:01.221Z,12.44
2018-11-06T17:07:31.780Z,12.34
2018-11-06T17:10:02.342Z,12.26
2018-11-06T17:12:32.856Z,12.18
2018-11-06T17:15:03.398Z,12.13
2018-11-06T17:17:33.934Z,12.05
2018-11-06T17:20:04.850Z,11.95
2018-11-06T17:22:35.284Z,11.80
2018-11-06T17:25:06.578Z,11.73
2018-11-06T17:27:37.347Z,11.65
2018-11-06T17:30:08.896Z,11.61
2018-11-06T17:32:40.107Z,11.57
2018-11-06T17:35:12.408Z,11.51
2018-11-06T17:37:43.324Z,11.55
2018-11-06T17:40:15.056Z,11.53
2018-11-06T17:42:45.640Z,11.53
2018-11-06T17:45:18.409Z,11.48
2018-11-06T17:47:48.678Z,11.43
2018-11-06T17:50:19.314Z,11.35
2018-11-06T17:52:49.973Z,11.26
2018-11-06T17:55:21.343Z,11.19
2018-11-06T17:58:06.034Z,11.07
2018-11-06T18:00:37.075Z,11.02
2018-11-06T18:03:07.528Z,10.92
2018-11-06T18:05:37.846Z,10.81
2018-11-06T18:08:08.604Z,10.80
2018-11-06T18:10:43.508Z,10.74
2018-11-06T18:13:15.298Z,10.66
2018-11-06T18:15:45.706Z,10.62
2018-11-06T18:18:16.206Z,10.54
2018-11-06T18:20:47.111Z,10.53
2018-11-06T18:23:17.698Z,10.47
2018-11-06T18:25:48.382Z,10.33
2018-11-06T18:28:18.546Z,10.28
2018-11-06T18:30:50.162Z,10.15
2018-11-06T18:33:20.653Z,10.09
2018-11-06T18:35:51.198Z,10.02
2018-11-06T18:38:21.973Z,9.98
2018-11-06T18:40:52.300Z,9.89
2018-11-06T18:43:22.774Z,9.79
2018-11-06T18:45:53.311Z,9.72
2018-11-06T18:48:23.814Z,9.68
2018-11-06T18:50:54.432Z,9.67
2018-11-06T18:53:31.428Z,9.62
2018-11-06T18:56:01.850Z,9.57
2018-11-06T18:58:32.597Z,9.51
2018-11-06T19:01:03.026Z,9.42
2018-11-06T19:03:33.402Z,9.44
2018-11-06T19:06:03.864Z,9.45
2018-11-06T19:08:34.280Z,9.44
2018-11-06T19:11:04.851Z,9.43
2018-11-06T19:13:35.394Z,9.42
2018-11-06T19:16:06.018Z,9.41
2018-11-06T19:18:36.464Z,9.44
2018-11-06T19:21:07.017Z,9.43
2018-11-06T19:23:37.726Z,9.43
2018-11-06T19:26:08.145Z,9.41
2018-11-06T19:28:38.468Z,9.35
2018-11-06T19:31:09.023Z,9.28
2018-11-06T19:33:39.504Z,9.14
2018-11-06T19:36:10.221Z,9.02
2018-11-06T19:38:44.059Z,8.90
2018-11-06T19:41:14.461Z,8.83
2018-11-06T19:43:45.074Z,8.94
2018-11-06T19:46:15.738Z,9.17
2018-11-06T19:48:46.186Z,9.46
2018-11-06T19:51:23.019Z,9.46
2018-11-06T19:53:54.215Z,9.38
2018-11-06T19:56:24.731Z,9.27
2018-11-06T19:58:55.140Z,9.23
2018-11-06T20:01:25.839Z,9.19
2018-11-06T20:03:56.393Z,9.08
2018-11-06T20:06:26.695Z,8.99
2018-11-06T20:08:57.008Z,8.94
2018-11-06T20:11:27.551Z,8.88
2018-11-06T20:13:58.081Z,8.80
2018-11-06T20:16:28.839Z,8.72
2018-11-06T20:18:59.428Z,8.67
2018-11-06T20:21:30.253Z,8.70
2018-11-06T20:24:00.771Z,8.66
2018-11-06T20:26:31.187Z,8.56
2018-11-06T20:29:01.766Z,8.47
2018-11-06T20:31:32.211Z,8.43
2018-11-06T20:34:02.666Z,8.34
2018-11-06T20:36:33.239Z,8.25
2018-11-06T20:39:05.126Z,8.21
2018-11-06T20:41:35.573Z,8.16
2018-11-06T20:44:07.074Z,8.21
2018-11-06T20:46:37.739Z,8.18
2018-11-06T20:49:08.402Z,8.12
2018-11-06T20:51:38.838Z,8.05
2018-11-06T20:54:09.389Z,7.94
2018-11-06T20:56:40.359Z,7.85
2018-11-06T20:59:10.803Z,7.82
2018-11-06T21:01:41.303Z,7.83
2018-11-06T21:04:11.982Z,7.78
2018-11-06T21:06:42.935Z,7.64
2018-11-06T21:09:13.702Z,7.59
2018-11-06T21:11:44.288Z,7.51
2018-11-06T21:14:15.103Z,7.44
2018-11-06T21:16:45.622Z,7.38
2018-11-06T21:19:16.057Z,7.36
2018-11-06T21:21:46.424Z,7.30
2018-11-06T21:24:16.695Z,7.25
2018-11-06T21:26:47.087Z,7.36
2018-11-06T21:29:17.540Z,7.40
2018-11-06T21:31:47.932Z,7.37
2018-11-06T21:34:18.273Z,7.40
2018-11-06T21:36:48.977Z,7.42
2018-11-06T21:39:19.663Z,7.39
2018-11-06T21:41:50.138Z,7.28
2018-11-06T21:44:20.513Z,7.18
2018-11-06T21:46:50.971Z,7.08
2018-11-06T21:49:21.326Z,6.97
2018-11-06T21:51:52.047Z,6.90
2018-11-06T21:54:22.430Z,6.84
2018-11-06T21:56:53.086Z,6.85
2018-11-06T21:59:23.586Z,6.86
2018-11-06T22:01:54.047Z,6.87
2018-11-06T22:04:24.461Z,6.84
2018-11-06T22:06:54.795Z,6.77
2018-11-06T22:09:25.359Z,6.74
2018-11-06T22:11:55.846Z,6.78
2018-11-06T22:14:26.315Z,6.77
2018-11-06T22:16:56.696Z,6.73
2018-11-06T22:19:27.161Z,6.72
2018-11-06T22:21:57.713Z,6.67
2018-11-06T22:24:28.150Z,6.68
2018-11-06T22:26:58.454Z,6.70
2018-11-06T22:29:28.938Z,6.67
2018-11-06T22:31:59.452Z,6.68
2018-11-06T22:34:29.978Z,6.61
2018-11-06T22:37:00.479Z,6.61
2018-11-06T22:39:30.851Z,6.64
2018-11-06T22:42:01.291Z,6.65
2018-11-06T22:44:31.796Z,6.64
2018-11-06T22:47:02.444Z,6.62
2018-11-06T22:49:32.880Z,6.58
2018-11-06T22:52:03.702Z,6.57
2018-11-06T22:54:34.096Z,6.55
2018-11-06T22:57:04.958Z,6.48
2018-11-06T22:59:35.453Z,6.43
2018-11-06T23:02:05.847Z,6.41
2018-11-06T23:04:36.442Z,6.41
2018-11-06T23:07:06.886Z,6.40
2018-11-06T23:09:37.396Z,6.42
2018-11-06T23:12:07.962Z,6.43
2018-11-06T23:14:38.510Z,6.37
2018-11-06T23:17:09.002Z,6.40
2018-11-06T23:19:39.462Z,6.41
2018-11-06T23:22:09.798Z,6.34
2018-11-06T23:24:40.287Z,6.30
2018-11-06T23:27:10.702Z,6.29
2018-11-06T23:29:41.161Z,6.35
2018-11-06T23:32:11.777Z,6.32
2018-11-06T23:34:42.536Z,6.30
2018-11-06T23:37:13.166Z,6.30
2018-11-06T23:39:43.825Z,6.25
2018-11-06T23:42:14.430Z,6.20
2018-11-06T23:44:45.178Z,6.20
2018-11-06T23:47:15.730Z,6.11
2018-11-06T23:49:46.258Z,6.05
2018-11-06T23:52:17.014Z,5.98
2018-11-06T23:54:47.493Z,5.93
2018-11-06T23:57:18.063Z,5.93
2018-11-06T23:59:48.429Z,5.94
